Hundvaag 1 weather for May 2005
Month no. 215
Obs.
Da.
Temp. Dew Point Precip. Wind
Speed
Wind gusts Cloud cover Press. Humidity Wind dir. Sunny OPT
01.05.2005 11,2   0,5 11,3   10 1010,0 74,0 202,5 1 82,5 %
02.05.2005 12,0   1,0 18,0   2 1009,9 77,0 157,5 1 60,0 %
03.05.2005 10,1   1,0 6,0   0 1010,7 93,0 180,0   62,5 %
04.05.2005 8,2   0,9 14,0   0 1010,6 100,0 315,0   55,0 %
05.05.2005 5,3   2,6 4,8   10 1013,4 81,0 202,5 1 82,5 %
06.05.2005 6,2   1,6 0,0   9 1004,6 85,0   1 82,5 %
07.05.2005 4,7   1,0 0,0   5 1001,6 85,0   1 70,0 %
08.05.2005 9,5   4,6 8,0   2 1005,7 81,0 180,0 1 60,0 %
09.05.2005 8,0   2,5 0,0   4 1006,0 93,0   1 72,5 %
10.05.2005 7,3   0,0 7,0   2 1012,0 81,0 0,0 1 62,5 %
11.05.2005 6,7   0,0 14,0   7 1015,9 81,0 0,0 1 70,0 %
12.05.2005 7,0   0,0 6,0   10 1017,8 87,0 0,0 1 82,5 %
13.05.2005 6,3   0,0 9,0   10 1019,9 81,0 0,0 1 80,0 %
14.05.2005 7,1   0,0 0,0   10 1023,9 78,0   1 85,0 %
15.05.2005 7,3   0,0 0,0   1 1018,5 79,0     62,5 %
16.05.2005 4,7   1,0 11,3   5 1009,7 73,0 337,5 1 62,5 %
17.05.2005 4,7   0,0 0,0   8 1013,8 77,0 337,5 1 77,5 %
18.05.2005 5,8   4,5 1,0   7 1013,3 87,0   1 75,0 %
19.05.2005 5,7   0,6 6,0   4 1016,7 87,0 180,0 1 67,5 %
20.05.2005 10,1   3,3 13,0   1 1013,4 76,0 135,0 1 57,5 %
21.05.2005 13,3   7,3 15,0   1 1008,1 88,0 157,5 1 55,0 %
22.05.2005 14,3   5,3 21,0   4 1008,0 77,0 135,0 1 62,5 %
23.05.2005 10,9   2,0 7,0   10 1010,3 87,0 135,0 1 87,5 %
24.05.2005 10,4   0,5 17,0   2 1011,0 76,0 157,5 1 60,0 %
25.05.2005 9,7   3,5 2,0   0 1013,6 93,0 90,0   60,0 %
26.05.2005 12,6   10,9 14,0   0 1011,5 94,0 180,0 1 52,5 %
27.05.2005 10,8   1,2 5,0   1 1012,6 87,0 270,0   65,0 %
28.05.2005 11,0   1,5 19,3   0 1011,4 77,0 202,5   52,5 %
29.05.2005 10,0   1,3 8,0   0 1015,8 63,0 135,0   60,0 %
30.05.2005 9,2   0,2 13,0   0 1012,6 93,0 270,0   55,0 %
31.05.2005 10,4   0,3 6,0   0 1013,4 94,0 337,5 1 62,5 %
Avrg/Sum 8,7   59,1 8,3   4,0 1012,1 83,4 171,9 23 67,2 %